• Join FlightAware (Why Join?)
  • Login
  • US Flag 
06:58PM EDT


 

Airport Tracker/Info


-or-


 

Live Flight TrackerFlight Track Log ✈ SWA4254 ✈ 27-Dec-2012 ✈ KDEN - KMHT

Flight Track Log - Related Links

Times and Time Zones

All times are in EST time to prevent confusion due to time zone crossing. See the SWA4254 flight status page for this flight to view local times or setup timezone preferences in your user account.

Time Position Orientation Groundspeed Altitude Reporting Facility
EST Latitude Longitude Course Direction KTS MPH feet Rate Location/Type
08:16PM 39.8833 -104.5833 102° East 181 208 7,100  Level Denver TRACON
08:17PM 39.8667 -104.4833 102° East 279 321 9,200 2,100 Climbing Denver TRACON
08:18PM 39.8667 -104.3667 90° East 317 365 11,400 2,400 Climbing Denver TRACON
08:19PM 39.8747 -104.2478 85° East 352 405 14,200 2,760 Climbing Denver Center
08:20PM 39.8772 -104.1122 89° East 369 425 17,200 2,880 Climbing Denver Center
08:21PM 39.8797 -103.9367 89° East 389 448 20,900 2,580 Climbing Denver Center
08:22PM 39.8819 -103.7808 89° East 398 458 23,100 1,980 Climbing Denver Center
08:23PM 39.8892 -103.6439 86° East 409 471 25,000 2,040 Climbing Denver Center
08:24PM 39.9164 -103.4611 79° East 435 501 27,400 1,980 Climbing Denver Center
08:25PM 39.9400 -103.3025 79° East 441 507 29,200 1,500 Climbing Denver Center
08:26PM 39.9642 -103.1394 79° East 451 519 30,600 1,260 Climbing Denver Center
08:27PM 39.9853 -102.9989 79° East 462 532 31,800 1,380 Climbing Denver Center
08:28PM 40.0144 -102.7997 79° East 474 545 33,500 1,440 Climbing Denver Center
08:29PM 40.0406 -102.6228 79° East 479 551 34,800 1,200 Climbing Denver Center
08:30PM 40.0700 -102.4289 79° East 486 559 36,100 1,020 Climbing Denver Center
08:31PM 40.0919 -102.2600 80° East 491 565 37,000 420 Climbing Denver Center
08:32PM 40.1153 -102.0933 80° East 490 564 37,000  Level Denver Center
08:33PM 40.1417 -101.8972 80° East 491 565 37,000  Level Denver Center
08:35PM 40.1644 -101.7311 80° East 489 563 37,000  Level Denver Center
08:36PM 40.1917 -101.5367 80° East 489 563 37,000  Level Denver Center
08:37PM 40.2133 -101.3703 80° East 488 562 37,000  Level Denver Center
08:38PM 40.2394 -101.1781 80° East 484 557 37,000  Level Denver Center
08:39PM 40.2614 -101.0133 80° East 483 556 37,000  Level Denver Center
08:40PM 40.2861 -100.8186 80° East 487 560 37,000  Level Denver Center
08:41PM 40.3072 -100.6517 81° East 488 562 37,000  Level Denver Center
08:42PM 40.3317 -100.4564 81° East 489 563 37,000  Level Denver Center
08:43PM 40.3519 -100.2883 81° East 491 565 37,000  Level Denver Center
08:44PM 40.3767 -100.0914 81° East 492 566 37,000  Level Denver Center
08:45PM 40.3972 -99.9219 81° East 493 567 37,000  Level Denver Center
08:46PM 40.4175 -99.7489 81° East 495 570 37,000  Level Denver Center
08:47PM 40.4386 -99.5708 81° East 495 570 37,000  Level Denver Center
08:48PM 40.4631 -99.3569 81° East 495 570 37,000  Level Denver Center
08:49PM 40.4839 -99.1783 81° East 497 572 37,000  Level Denver Center
08:50PM 40.5008 -99.0350 81° East 499 574 37,000  Level Minneapolis Center
08:51PM 40.5203 -98.8556 82° East 499 574 37,000  Level Minneapolis Center
08:52PM 40.5397 -98.6744 82° East 501 577 37,000  Level Minneapolis Center
08:53PM 40.5583 -98.4950 82° East 501 577 37,000  Level Minneapolis Center
08:54PM 40.5781 -98.3150 82° East 501 577 37,000  Level Minneapolis Center
08:55PM 40.5964 -98.1333 82° East 502 578 37,000  Level Minneapolis Center
08:56PM 40.6192 -97.9156 82° East 503 579 37,000  Level Minneapolis Center
08:57PM 40.6375 -97.7344 82° East 502 578 37,000  Level Minneapolis Center
08:58PM 40.6550 -97.5514 83° East 503 579 37,000  Level Minneapolis Center
08:59PM 40.6731 -97.3686 83° East 504 580 37,000  Level Minneapolis Center
09:00PM 40.6914 -97.1744 83° East 503 579 37,000  Level Minneapolis Center
09:01PM 40.7083 -96.9917 83° East 504 580 37,000  Level Minneapolis Center
09:02PM 40.7258 -96.8092 83° East 505 581 37,000  Level Minneapolis Center
09:03PM 40.7428 -96.6256 83° East 506 582 37,000  Level Minneapolis Center
09:04PM 40.7628 -96.4053 83° East 507 583 37,000  Level Minneapolis Center
09:05PM 40.7789 -96.2231 83° East 505 581 37,000  Level Minneapolis Center
09:06PM 40.7942 -96.0411 84° East 504 580 37,000  Level Minneapolis Center
09:07PM 40.8092 -95.8586 84° East 504 580 37,000  Level Minneapolis Center
09:08PM 40.8239 -95.6764 84° East 504 580 37,000  Level Minneapolis Center
09:09PM 40.8392 -95.4922 84° East 506 582 37,000  Level Minneapolis Center
09:10PM 40.8569 -95.2722 84° East 506 582 37,000  Level Minneapolis Center
09:11PM 40.8711 -95.0892 84° East 505 581 37,000  Level Minneapolis Center
09:12PM 40.8850 -94.9047 84° East 505 581 37,000  Level Minneapolis Center
09:13PM 40.8989 -94.7206 84° East 505 581 37,000  Level Minneapolis Center
09:14PM 40.9117 -94.5375 85° East 506 582 37,000  Level Minneapolis Center
09:15PM 40.9244 -94.3536 85° East 506 582 37,000  Level Minneapolis Center
09:17PM 40.9400 -94.1333 85° East 505 581 37,000  Level Minneapolis Center
09:18PM 40.9536 -93.9486 84° East 505 581 37,000  Level Minneapolis Center
09:19PM 40.9667 -93.7628 85° East 507 583 37,000  Level Minneapolis Center
09:20PM 40.9753 -93.5789 86° East 506 582 37,000  Level Minneapolis Center
09:21PM 40.9869 -93.3928 85° East 507 583 37,000  Level Minneapolis Center
09:22PM 40.9981 -93.2081 85° East 507 583 37,000  Level Minneapolis Center
09:23PM 41.0100 -93.0203 85° East 509 586 37,000  Level Minneapolis Center
09:24PM 41.0219 -92.7947 86° East 508 585 37,000  Level Chicago Center
09:25PM 41.0331 -92.6086 85° East 508 585 37,000  Level Chicago Center
09:26PM 41.0431 -92.4211 86° East 509 586 37,000  Level Chicago Center
09:27PM 41.0528 -92.2342 86° East 510 587 37,000  Level Chicago Center
09:28PM 41.0631 -92.0458 86° East 512 589 37,000  Level Chicago Center
09:29PM 41.0739 -91.8192 86° East 514 592 37,000  Level Chicago Center
09:30PM 41.0831 -91.6417 86° East 515 593 37,000  Level Chicago Center
09:31PM 41.0919 -91.4519 86° East 516 594 37,000  Level Chicago Center
09:32PM 41.1006 -91.2614 87° East 517 595 37,000  Level Chicago Center
09:33PM 41.1083 -91.0711 87° East 516 594 37,000  Level Chicago Center
09:34PM 41.1164 -90.8689 87° East 517 595 37,000  Level Chicago Center
09:35PM 41.1247 -90.6489 87° East 522 601 37,000  Level Chicago Center
09:36PM 41.1314 -90.4561 87° East 522 601 37,000  Level Chicago Center
09:37PM 41.1386 -90.2633 87° East 522 601 37,000  Level Chicago Center
09:38PM 41.1447 -90.0700 88° East 521 600 37,000  Level Chicago Center
09:39PM 41.1508 -89.8744 88° East 525 604 37,000  Level Chicago Center
09:40PM 41.1572 -89.6778 87° East 529 609 37,000  Level Chicago Center
09:41PM 41.1922 -89.4872 76° East 527 606 37,000  Level Chicago Center
09:42PM 41.2475 -89.3056 68° East 529 609 37,000  Level Chicago Center
09:43PM 41.3067 -89.1153 67° East 527 606 37,000  Level Chicago Center
09:44PM 41.3611 -88.9361 68° East 525 604 37,000  Level Chicago Center
09:45PM 41.4147 -88.7556 68° East 525 604 37,000  Level Chicago Center
09:46PM 41.4689 -88.5772 68° East 523 602 37,000  Level Chicago Center
09:47PM 41.5331 -88.3606 68° East 522 601 37,000  Level Chicago Center
09:48PM 41.5631 -88.1694 78° East 533 613 37,000  Level Chicago Center
09:49PM 41.5869 -87.9753 81° East 519 597 37,000  Level Chicago Center
09:50PM 41.6092 -87.7836 81° East 518 596 37,000 240 Level Chicago Center
09:52PM 41.6306 -87.5925 81° East 518 596 37,500 540 Climbing Chicago Center
09:53PM 41.6531 -87.3989 81° East 524 603 38,200 720 Climbing Chicago Center
09:54PM 41.6739 -87.2011 82° East 532 612 39,000 360 Climbing Chicago Center
09:55PM 41.6953 -87.0069 82° East 532 612 39,000  Level Chicago Center
09:56PM 41.7167 -86.8156 81° East 524 603 39,000  Level Chicago Center
09:57PM 41.7381 -86.6186 82° East 523 602 39,000  Level Chicago Center
09:58PM 41.7575 -86.4264 82° East 522 601 39,000  Level Chicago Center
09:59PM 41.7775 -86.2342 82° East 522 601 39,000  Level Chicago Center
10:00PM 41.8017 -86.0008 82° East 525 604 39,000  Level Chicago Center
10:01PM 41.8211 -85.8067 82° East 524 603 39,000  Level Chicago Center
10:02PM 41.8414 -85.6100 82° East 527 606 39,000  Level Chicago Center
10:03PM 41.8611 -85.4103 82° East 530 610 39,000  Level Chicago Center
10:04PM 41.8800 -85.2125 83° East 528 608 39,000  Level Chicago Center
10:05PM 41.9000 -85.0161 82° East 528 608 39,000  Level Chicago Center
10:06PM 41.9244 -84.8175 81° East 535 616 39,000  Level Chicago Center
10:07PM 41.9567 -84.5906 79° East 519 597 39,000  Level Cleveland Center
10:08PM 41.9800 -84.3908 81° East 524 603 39,000  Level Cleveland Center
10:09PM 41.9983 -84.2156 82° East 524 603 39,000  Level Cleveland Center
10:10PM 42.0211 -84.0186 81° East 524 603 39,000  Level Cleveland Center
10:11PM 42.0436 -83.8156 81° East 534 615 39,000  Level Cleveland Center
10:12PM 42.0636 -83.6236 82° East 539 620 39,000  Level Cleveland Center
10:13PM 42.0897 -83.4178 80° East 544 626 39,000  Level Cleveland Center
10:14PM 42.1108 -83.2225 82° East 537 618 39,000  Level Cleveland Center
10:15PM 42.1297 -83.0331 82° East 532 612 39,000  Level Cleveland Center
10:16PM 42.1483 -82.8350 83° East 526 605 39,000  Level Cleveland Center
10:17PM 42.1731 -82.6369 80° East 526 605 39,000  Level Cleveland Center
10:18PM 42.1931 -82.4414 82° East 526 605 39,000  Level Cleveland Center
10:19PM 42.2106 -82.2456 83° East 526 605 39,000  Level Cleveland Center
10:20PM 42.2364 -82.0247 81° East 526 605 39,000  Level Cleveland Center
10:21PM 42.2556 -81.8258 83° East 531 611 39,000  Level Cleveland Center
10:22PM 42.2719 -81.6494 83° East 536 617 39,000  Level Cleveland Center
10:23PM 42.2903 -81.4506 83° East 533 613 39,000  Level Cleveland Center
10:24PM 42.3081 -81.2514 83° East 533 613 39,000  Level Cleveland Center
10:25PM 42.3281 -81.0522 82° East 538 619 39,000  Level Cleveland Center
10:26PM 42.3453 -80.8556 83° East 538 619 39,000  Level Cleveland Center
10:27PM 42.3644 -80.6394 83° East 538 619 39,000  Level Cleveland Center
10:28PM 42.3808 -80.4456 83° East 528 608 39,000  Level Cleveland Center
10:29PM 42.3992 -80.2514 83° East 523 602 39,000  Level Cleveland Center
10:30PM 42.4131 -80.0544 84° East 518 596 39,000  Level Cleveland Center
10:31PM 42.4269 -79.8800 84° East 518 596 39,000  Level Cleveland Center
10:32PM 42.4422 -79.6856 84° East 523 602 39,000  Level Cleveland Center
10:33PM 42.4572 -79.4883 84° East 523 602 39,000  Level Cleveland Center
10:34PM 42.4717 -79.2800 85° East 511 588 39,000  Level Cleveland Center
10:35PM 42.4839 -79.0853 85° East 511 588 39,000  Level Cleveland Center
10:36PM 42.5000 -78.8936 83° East 516 594 39,000  Level Cleveland Center
10:37PM 42.5136 -78.6989 85° East 516 594 39,000  Level Cleveland Center
10:38PM 42.5253 -78.5236 85° East 519 597 39,000  Level Cleveland Center
10:39PM 42.5383 -78.3289 85° East 519 597 39,000  Level Cleveland Center
10:40PM 42.5508 -78.1339 85° East 519 597 39,000  Level Cleveland Center
10:41PM 42.5656 -77.9417 84° East 519 597 39,000  Level Cleveland Center
10:42PM 42.5775 -77.7464 85° East 519 597 39,000  Level Cleveland Center
10:43PM 42.5892 -77.5542 85° East 519 597 39,000  Level Cleveland Center
10:45PM 42.6056 -77.2364 86° East 531 611 39,000  Level Boston Center
10:46PM 42.6175 -77.0456 85° East 521 600 39,000  Level Boston Center
10:47PM 42.6275 -76.8486 86° East 516 594 39,000  Level Boston Center
10:48PM 42.6369 -76.6572 86° East 516 594 39,000  Level Boston Center
10:49PM 42.6481 -76.4658 85° East 516 594 39,000  Level Boston Center
10:50PM 42.6567 -76.2744 86° East 516 594 39,000  Level Boston Center
10:51PM 42.6678 -76.0633 86° East 511 588 39,000  Level Boston Center
10:52PM 42.6758 -75.8744 87° East 511 588 39,000  Level Boston Center
10:53PM 42.6833 -75.6828 87° East 511 588 39,000  Level Boston Center
10:54PM 42.6908 -75.4911 87° East 511 588 39,000 -120 Level Boston Center
10:55PM 42.6981 -75.2964 87° East 511 588 38,800 -1,380 Descending Boston Center
10:56PM 42.7067 -75.1075 86° East 511 588 36,300 -2,400 Descending Boston Center
10:57PM 42.7131 -74.9211 87° East 504 580 34,000 -2,220 Descending Boston Center
10:58PM 42.7189 -74.7406 87° East 488 562 31,900 -2,100 Descending Boston Center
10:59PM 42.7264 -74.5656 87° East 477 549 29,800 -1,560 Descending Boston Center
11:00PM 42.7294 -74.3989 89° East 456 525 28,800 -960 Descending Boston Center
11:01PM 42.7344 -74.2267 88° East 448 516 27,900 -960 Descending Boston Center
11:02PM 42.7392 -74.0542 88° East 448 516 26,900 -1,020 Descending Boston Center
11:03PM 42.7436 -73.8819 88° East 448 516 25,900 -1,020 Descending Boston Center
11:04PM 42.7497 -73.7153 87° East 448 516 24,900 -1,020 Descending Boston Center
11:05PM 42.7575 -73.5486 86° East 442 509 23,900 -960 Descending Boston Center
11:06PM 42.7653 -73.3875 86° East 437 503 23,000 -1,020 Descending Boston Center
11:07PM 42.7686 -73.2264 88° East 431 496 21,900 -1,080 Descending Boston Center
11:08PM 42.7739 -73.0625 87° East 426 490 20,900 -1,020 Descending Boston Center
11:09PM 42.7789 -72.8983 88° East 426 490 19,900 -1,020 Descending Boston Center
11:10PM 42.7856 -72.7483 86° East 415 478 18,900 -1,200 Descending Boston Center
11:11PM 42.7881 -72.5928 89° East 401 461 17,600 -1,800 Descending Boston Center
11:12PM 42.7922 -72.4428 88° East 401 461 15,300 -2,340 Descending Boston Center
11:13PM 42.7942 -72.3014 89° East 401 461 13,000 -2,220 Descending Boston Center
11:14PM 42.7897 -72.1628 92° East 370 426 10,900 -1,380 Descending Boston Center
11:15PM 42.7833 -72.0497 94° East 344 396 10,300 -1,020 Descending Boston Center
11:16PM 42.7722 -71.9253 97° East 307 353 8,900 -1,440 Descending Boston Center
11:17PM 42.7614 -71.8264 98° East 295 339 7,500 -1,500 Descending Boston Center
11:18PM 42.7461 -71.7050 100° East 295 339 5,900 -1,500 Descending Boston Center
11:19PM 42.7350 -71.6092 99° East 295 339 4,500 -1,320 Descending Boston Center
11:20PM 42.7217 -71.4989 99° East 279 321 3,300 -1,200 Descending Boston Center
11:21PM 42.7189 -71.4114 92° East 261 300 2,100 -660 Descending Boston Center
11:22PM 42.7472 -71.3431 61° Northeast 200 230 2,000 -60 Descending Boston Center
11:23PM 42.7953 -71.3536 351° North 165 190 2,000  Level Boston Center
11:24PM 42.8456 -71.3839 336° Northwest 170 196 2,000 -360 Level Boston Center
11:25PM 42.8750 -71.4003 338° Northwest 146 168 1,300 -720 Descending Boston Center
11:26PM 42.9086 -71.4197 337° Northwest 123 142 600 -480 Descending Boston Center
11:27PM 42.9400 -71.4417 333° Northwest 116 133 400 -240 Descending Boston Center